Time;durP1;ratioP1;P1;durP2;ratioP2;P2;SDS_P1;SDS_P2;PMS_P1;PMS_P2;Temp;Humidity;BMP_temperature;BMP_pressure;BME280_temperature;BME280_humidity;BME280_pressure;Samples;Min_cycle;Max_cycle;Signal;HPM_P1;HPM_P2
2021/05/15 00:03:41;;;;;;;1.90;0.60;;;;;;;;;;4936636;29;20510;-70
2021/05/15 00:06:07;;;;;;;0.90;0.90;;;;;;;;;;4936164;29;20498;-70
2021/05/15 00:08:33;;;;;;;0.87;0.70;;;;;;;;;;4937526;29;20423;-71
2021/05/15 00:10:59;;;;;;;3.00;0.73;;;;;;;;;;4937488;29;20503;-70
2021/05/15 00:13:26;;;;;;;1.07;0.60;;;;;;;;;;4937590;29;20583;-70
2021/05/15 00:18:55;;;;;;;1.00;1.00;;;;;;;;;;4937411;29;20419;-70
2021/05/15 00:21:21;;;;;;;0.50;0.40;;;;;;;;;;4937163;29;20767;-71
2021/05/15 00:23:48;;;;;;;1.37;0.80;;;;;;;;;;4936992;29;20416;-71
2021/05/15 00:26:14;;;;;;;1.30;0.70;;;;;;;;;;4937263;29;20968;-71
2021/05/15 00:28:41;;;;;;;1.93;0.57;;;;;;;;;;4941498;29;20414;-72
2021/05/15 00:34:10;;;;;;;1.80;1.00;;;;;;;;;;4937111;29;20445;-70
2021/05/15 00:36:37;;;;;;;1.07;0.90;;;;;;;;;;4937223;29;20430;-71
2021/05/15 00:39:04;;;;;;;1.47;0.70;;;;;;;;;;4937081;29;20521;-71
2021/05/15 00:41:30;;;;;;;0.70;0.70;;;;;;;;;;4937001;29;20516;-72
2021/05/15 00:49:45;;;;;;;0.73;0.63;;;;;;;;;;4936918;29;20426;-71
2021/05/15 00:52:11;;;;;;;1.50;0.73;;;;;;;;;;4936716;29;20494;-70
2021/05/15 00:54:38;;;;;;;1.20;0.90;;;;;;;;;;4936316;29;20546;-71
2021/05/15 00:57:06;;;;;;;0.97;0.87;;;;;;;;;;4936922;29;20474;-71
2021/05/15 00:59:33;;;;;;;1.27;0.80;;;;;;;;;;4936698;29;20787;-71
2021/05/15 01:01:59;;;;;;;1.03;0.93;;;;;;;;;;4936656;29;20418;-70
2021/05/15 01:04:25;;;;;;;1.07;0.80;;;;;;;;;;4936313;29;20420;-71
2021/05/15 01:06:52;;;;;;;0.73;0.50;;;;;;;;;;4936875;29;20504;-71
2021/05/15 01:09:18;;;;;;;3.53;0.80;;;;;;;;;;4936317;29;20522;-71
2021/05/15 01:11:44;;;;;;;1.50;1.20;;;;;;;;;;4936808;29;20414;-70
2021/05/15 01:14:10;;;;;;;2.97;1.07;;;;;;;;;;4936521;29;20470;-71
2021/05/15 01:19:40;;;;;;;1.07;0.97;;;;;;;;;;4936310;29;20412;-70
2021/05/15 01:22:07;;;;;;;1.10;1.00;;;;;;;;;;4936351;29;20420;-71
2021/05/15 01:24:33;;;;;;;1.47;0.60;;;;;;;;;;4936408;29;20800;-70
2021/05/15 01:27:00;;;;;;;2.43;0.80;;;;;;;;;;4936396;29;20424;-70
2021/05/15 01:29:26;;;;;;;0.60;0.60;;;;;;;;;;4936457;29;20417;-70
2021/05/15 01:31:52;;;;;;;1.57;1.47;;;;;;;;;;4936230;29;20776;-72
2021/05/15 01:34:18;;;;;;;1.30;0.73;;;;;;;;;;4938408;29;20422;-71
2021/05/15 01:36:44;;;;;;;1.07;0.77;;;;;;;;;;4940095;29;20417;-71
2021/05/15 01:39:11;;;;;;;1.27;1.17;;;;;;;;;;4936013;29;20483;-71
2021/05/15 01:41:37;;;;;;;1.20;1.10;;;;;;;;;;4936205;29;20428;-71
2021/05/15 01:44:03;;;;;;;0.73;0.70;;;;;;;;;;4936297;29;20784;-71
2021/05/15 01:49:33;;;;;;;1.10;1.00;;;;;;;;;;4935677;29;20421;-70
2021/05/15 01:51:59;;;;;;;1.40;0.83;;;;;;;;;;4935925;29;20426;-70
2021/05/15 01:54:25;;;;;;;0.60;0.60;;;;;;;;;;4935435;29;20543;-72
2021/05/15 01:56:51;;;;;;;1.43;0.80;;;;;;;;;;4935604;29;20896;-71
2021/05/15 01:59:17;;;;;;;1.50;1.10;;;;;;;;;;4935633;29;20424;-70
2021/05/15 02:04:46;;;;;;;0.77;0.70;;;;;;;;;;4934934;29;20529;-71
2021/05/15 02:07:12;;;;;;;1.20;0.90;;;;;;;;;;4935199;29;20456;-70
2021/05/15 02:09:38;;;;;;;0.97;0.90;;;;;;;;;;4935309;29;20417;-70
2021/05/15 02:12:04;;;;;;;2.73;0.60;;;;;;;;;;4935577;29;20421;-71
2021/05/15 02:14:30;;;;;;;1.43;1.30;;;;;;;;;;4935469;29;20416;-70
2021/05/15 02:20:00;;;;;;;1.43;0.90;;;;;;;;;;4935629;29;20456;-71
2021/05/15 02:22:26;;;;;;;1.90;1.10;;;;;;;;;;4935712;29;20484;-71
2021/05/15 02:24:52;;;;;;;5.03;0.90;;;;;;;;;;4935259;29;20889;-70
2021/05/15 02:27:18;;;;;;;1.50;0.93;;;;;;;;;;4935309;29;20478;-70
2021/05/15 02:29:44;;;;;;;1.30;1.20;;;;;;;;;;4938250;29;20417;-70
2021/05/15 02:32:11;;;;;;;1.20;0.97;;;;;;;;;;4939510;29;21037;-70
2021/05/15 02:34:37;;;;;;;3.47;1.00;;;;;;;;;;4939435;29;20433;-69
2021/05/15 02:37:03;;;;;;;1.30;1.00;;;;;;;;;;4939324;29;20716;-70
2021/05/15 02:39:29;;;;;;;1.10;1.00;;;;;;;;;;4939026;29;20418;-70
2021/05/15 02:41:55;;;;;;;1.13;1.03;;;;;;;;;;4939323;29;20423;-70
2021/05/15 02:44:21;;;;;;;1.17;1.10;;;;;;;;;;4939360;29;20425;-70
2021/05/15 02:49:50;;;;;;;1.07;1.00;;;;;;;;;;4939011;29;20404;-71
2021/05/15 02:52:17;;;;;;;5.23;1.00;;;;;;;;;;4938915;29;20603;-69
2021/05/15 02:54:43;;;;;;;1.80;1.43;;;;;;;;;;4938666;29;20919;-71
2021/05/15 02:57:09;;;;;;;1.40;1.30;;;;;;;;;;4938905;29;20978;-69
2021/05/15 02:59:35;;;;;;;1.90;1.80;;;;;;;;;;4938699;29;20425;-69
2021/05/15 03:05:06;;;;;;;2.40;1.00;;;;;;;;;;4938865;29;20532;-70
2021/05/15 03:07:32;;;;;;;0.90;0.90;;;;;;;;;;4938756;29;20410;-71
2021/05/15 03:09:59;;;;;;;1.10;1.10;;;;;;;;;;4938285;29;20464;-68
2021/05/15 03:12:25;;;;;;;2.10;1.13;;;;;;;;;;4938523;29;20460;-70
2021/05/15 03:14:51;;;;;;;1.40;0.93;;;;;;;;;;4938818;29;20420;-70
2021/05/15 03:20:21;;;;;;;0.80;0.80;;;;;;;;;;4938493;29;20553;-71
2021/05/15 03:22:47;;;;;;;1.03;0.70;;;;;;;;;;4938499;29;20778;-71
2021/05/15 03:25:14;;;;;;;1.37;1.07;;;;;;;;;;4938314;29;20417;-71
2021/05/15 03:27:40;;;;;;;1.80;1.00;;;;;;;;;;4938763;29;20829;-70
2021/05/15 03:30:07;;;;;;;1.20;1.00;;;;;;;;;;4938196;29;20907;-70
2021/05/15 03:35:36;;;;;;;1.40;1.03;;;;;;;;;;4943828;29;20411;-71
2021/05/15 03:38:02;;;;;;;1.20;1.13;;;;;;;;;;4938210;29;20408;-71
2021/05/15 03:40:28;;;;;;;1.07;0.97;;;;;;;;;;4938055;29;20413;-70
2021/05/15 03:42:56;;;;;;;2.37;0.87;;;;;;;;;;4938242;29;20816;-72
2021/05/15 03:45:22;;;;;;;0.70;0.70;;;;;;;;;;4938446;29;20436;-70
2021/05/15 03:47:48;;;;;;;1.10;1.00;;;;;;;;;;4938268;29;20432;-70
2021/05/15 03:50:14;;;;;;;2.50;1.10;;;;;;;;;;4937898;29;20424;-71
2021/05/15 03:52:40;;;;;;;2.53;1.10;;;;;;;;;;4938115;29;20905;-71
2021/05/15 03:55:06;;;;;;;2.30;1.53;;;;;;;;;;4937675;29;20483;-71
2021/05/15 03:57:32;;;;;;;3.13;0.87;;;;;;;;;;4937971;29;20415;-71
2021/05/15 03:59:58;;;;;;;1.53;1.07;;;;;;;;;;4937883;29;20421;-70
2021/05/15 04:05:28;;;;;;;0.87;0.53;;;;;;;;;;4937628;29;20427;-70
2021/05/15 04:07:54;;;;;;;1.80;1.10;;;;;;;;;;4937213;29;20951;-71
2021/05/15 04:10:20;;;;;;;1.60;1.00;;;;;;;;;;4937565;29;20412;-71
2021/05/15 04:13:13;;;;;;;1.57;1.10;;;;;;;;;;4937636;29;20464;-70
2021/05/15 04:18:06;;;;;;;1.90;1.10;;;;;;;;;;4943847;29;20417;-72
2021/05/15 04:20:33;;;;;;;0.87;0.87;;;;;;;;;;4937351;29;20421;-72
2021/05/15 04:22:59;;;;;;;2.20;0.90;;;;;;;;;;4937639;29;20420;-70
2021/05/15 04:25:25;;;;;;;1.70;1.40;;;;;;;;;;4937304;29;20952;-70
2021/05/15 04:27:50;;;;;;;1.53;1.00;;;;;;;;;;4937345;29;20518;-72
2021/05/15 04:30:17;;;;;;;4.17;2.00;;;;;;;;;;4937280;29;20912;-71
2021/05/15 04:35:46;;;;;;;1.13;0.90;;;;;;;;;;4937246;29;20463;-71
2021/05/15 04:38:12;;;;;;;2.40;0.90;;;;;;;;;;4936855;29;20414;-71
2021/05/15 04:40:38;;;;;;;2.50;1.50;;;;;;;;;;4937368;29;20489;-72
2021/05/15 04:43:04;;;;;;;1.30;1.20;;;;;;;;;;4937478;29;20473;-71
2021/05/15 04:45:32;;;;;;;1.43;0.97;;;;;;;;;;4937122;29;20972;-71
2021/05/15 04:51:01;;;;;;;0.90;0.80;;;;;;;;;;4936693;29;20416;-71
2021/05/15 04:53:27;;;;;;;0.77;0.77;;;;;;;;;;4936839;29;20559;-72
2021/05/15 04:55:53;;;;;;;1.37;1.10;;;;;;;;;;4936716;29;20430;-69
2021/05/15 04:58:19;;;;;;;1.73;1.23;;;;;;;;;;4936850;29;20905;-71
2021/05/15 05:00:45;;;;;;;1.60;0.70;;;;;;;;;;4936561;29;20501;-69
2021/05/15 05:06:15;;;;;;;0.90;0.90;;;;;;;;;;4936209;29;20446;-70
2021/05/15 05:08:41;;;;;;;1.77;0.80;;;;;;;;;;4934781;29;20440;-71
2021/05/15 05:11:07;;;;;;;1.90;0.80;;;;;;;;;;4936029;29;20500;-71
2021/05/15 05:13:32;;;;;;;0.83;0.83;;;;;;;;;;4935877;29;20479;-71
2021/05/15 05:15:58;;;;;;;0.87;0.80;;;;;;;;;;4935670;29;20474;-70
2021/05/15 05:21:28;;;;;;;0.53;0.53;;;;;;;;;;4936495;29;20508;-71
2021/05/15 05:23:54;;;;;;;5.53;0.80;;;;;;;;;;4936405;29;20412;-71
2021/05/15 05:26:20;;;;;;;1.00;0.90;;;;;;;;;;4936320;29;20766;-72
2021/05/15 05:28:49;;;;;;;1.20;0.87;;;;;;;;;;4936391;29;20420;-71
2021/05/15 05:31:15;;;;;;;0.80;0.80;;;;;;;;;;4936189;29;20931;-72
2021/05/15 05:36:44;;;;;;;0.50;0.43;;;;;;;;;;4935831;29;20492;-71
2021/05/15 05:39:12;;;;;;;1.33;0.70;;;;;;;;;;4935547;29;20928;-70
2021/05/15 05:41:38;;;;;;;0.80;0.70;;;;;;;;;;4935795;29;20420;-70
2021/05/15 05:44:04;;;;;;;1.27;0.73;;;;;;;;;;4935268;29;20421;-70
2021/05/15 05:46:30;;;;;;;2.17;0.90;;;;;;;;;;4935068;29;20417;-70
2021/05/15 05:48:56;;;;;;;0.70;0.70;;;;;;;;;;4935223;29;20424;-71
2021/05/15 05:51:22;;;;;;;1.10;0.60;;;;;;;;;;4935484;29;20424;-73
2021/05/15 05:53:49;;;;;;;1.30;1.20;;;;;;;;;;4935720;29;20632;-71
2021/05/15 05:56:15;;;;;;;1.23;0.60;;;;;;;;;;4936092;29;20432;-70
2021/05/15 05:58:44;;;;;;;1.73;1.00;;;;;;;;;;4935741;29;20726;-71
2021/05/15 06:01:10;;;;;;;7.30;0.93;;;;;;;;;;4934016;29;20432;-71
2021/05/15 06:06:40;;;;;;;0.63;0.63;;;;;;;;;;4935272;29;20499;-71
2021/05/15 06:09:06;;;;;;;1.07;0.60;;;;;;;;;;4933835;29;20432;-72
2021/05/15 06:11:32;;;;;;;0.83;0.67;;;;;;;;;;4935756;29;20433;-71
2021/05/15 06:13:58;;;;;;;0.50;0.50;;;;;;;;;;4935468;29;20578;-71
2021/05/15 06:16:24;;;;;;;1.00;0.40;;;;;;;;;;4935357;29;20519;-72
2021/05/15 06:21:54;;;;;;;1.60;0.60;;;;;;;;;;4934923;29;20482;-71
2021/05/15 06:24:20;;;;;;;0.80;0.60;;;;;;;;;;4934941;29;20511;-69
2021/05/15 06:26:46;;;;;;;1.77;0.60;;;;;;;;;;4935019;29;20432;-70
2021/05/15 06:29:12;;;;;;;1.40;0.70;;;;;;;;;;4935572;29;20421;-72
2021/05/15 06:31:38;;;;;;;0.90;0.70;;;;;;;;;;4935305;29;20494;-71
2021/05/15 06:37:07;;;;;;;0.60;0.50;;;;;;;;;;4935513;29;20420;-73
2021/05/15 06:39:33;;;;;;;1.73;0.90;;;;;;;;;;4933702;29;20440;-71
2021/05/15 06:41:59;;;;;;;1.10;0.70;;;;;;;;;;4935311;29;20425;-71
2021/05/15 06:44:25;;;;;;;0.77;0.77;;;;;;;;;;4934148;29;20599;-72
2021/05/15 06:46:51;;;;;;;0.60;0.53;;;;;;;;;;4932925;29;20515;-71
2021/05/15 06:52:21;;;;;;;1.50;0.87;;;;;;;;;;4933673;29;20498;-73
2021/05/15 06:54:47;;;;;;;0.60;0.60;;;;;;;;;;4931216;29;20835;-72
2021/05/15 06:57:13;;;;;;;0.90;0.70;;;;;;;;;;4933854;29;20417;-71
2021/05/15 06:59:39;;;;;;;1.37;0.80;;;;;;;;;;4933871;29;20433;-72
2021/05/15 07:02:05;;;;;;;1.47;0.50;;;;;;;;;;4933824;29;20420;-72
2021/05/15 07:07:35;;;;;;;0.70;0.70;;;;;;;;;;4933440;29;20475;-73
2021/05/15 07:10:01;;;;;;;0.70;0.53;;;;;;;;;;4933770;29;20999;-72
2021/05/15 07:12:30;;;;;;;1.10;0.67;;;;;;;;;;4916665;29;20456;-70
2021/05/15 07:14:56;;;;;;;3.90;0.90;;;;;;;;;;4934543;29;20428;-73
2021/05/15 07:17:25;;;;;;;0.87;0.60;;;;;;;;;;4936935;29;20416;-73
2021/05/15 07:19:54;;;;;;;0.63;0.50;;;;;;;;;;4936951;29;20416;-72
2021/05/15 07:22:25;;;;;;;1.70;0.57;;;;;;;;;;4935948;29;20784;-73
2021/05/15 07:24:52;;;;;;;2.03;0.80;;;;;;;;;;4936325;29;20436;-72
2021/05/15 07:27:18;;;;;;;0.83;0.60;;;;;;;;;;4920716;29;20412;-71
2021/05/15 07:29:44;;;;;;;0.60;0.60;;;;;;;;;;4937026;29;20420;-72
2021/05/15 07:32:10;;;;;;;0.80;0.80;;;;;;;;;;4936668;29;20532;-72
2021/05/15 07:37:39;;;;;;;1.53;0.80;;;;;;;;;;4937066;29;20422;-72
2021/05/15 07:40:06;;;;;;;0.87;0.50;;;;;;;;;;4936407;29;20421;-72
2021/05/15 07:42:32;;;;;;;0.90;0.73;;;;;;;;;;4936418;29;20424;-74
2021/05/15 07:44:58;;;;;;;0.50;0.50;;;;;;;;;;4936351;29;20431;-71
2021/05/15 07:47:25;;;;;;;1.13;0.83;;;;;;;;;;4936354;29;20483;-72
2021/05/15 07:52:54;;;;;;;1.77;0.57;;;;;;;;;;4936993;29;21069;-72
2021/05/15 07:55:20;;;;;;;0.83;0.60;;;;;;;;;;4936361;29;20971;-71
2021/05/15 07:57:46;;;;;;;5.13;0.90;;;;;;;;;;4936644;29;20440;-71
2021/05/15 08:00:14;;;;;;;2.47;1.13;;;;;;;;;;4936691;29;20432;-71
2021/05/15 08:02:40;;;;;;;1.50;0.80;;;;;;;;;;4936739;29;20480;-72
2021/05/15 08:08:09;;;;;;;0.70;0.60;;;;;;;;;;4936492;29;20503;-71
2021/05/15 08:10:35;;;;;;;1.80;0.57;;;;;;;;;;4935693;29;20963;-73
2021/05/15 08:13:02;;;;;;;0.80;0.60;;;;;;;;;;4936046;29;20459;-72
2021/05/15 08:15:28;;;;;;;3.30;1.00;;;;;;;;;;4936150;29;20726;-73
2021/05/15 08:17:55;;;;;;;1.90;0.80;;;;;;;;;;4935850;29;20483;-73
2021/05/15 08:20:21;;;;;;;0.87;0.60;;;;;;;;;;4935894;29;20519;-73
2021/05/15 08:22:47;;;;;;;0.90;0.70;;;;;;;;;;4935806;29;20448;-73
2021/05/15 08:25:14;;;;;;;0.97;0.73;;;;;;;;;;4935517;29;20445;-72
2021/05/15 08:27:41;;;;;;;1.53;1.40;;;;;;;;;;4935075;29;20451;-72
2021/05/15 08:30:08;;;;;;;0.70;0.60;;;;;;;;;;4935533;29;20413;-72
2021/05/15 08:32:34;;;;;;;0.73;0.53;;;;;;;;;;4935505;29;20470;-70
2021/05/15 08:38:05;;;;;;;2.23;1.63;;;;;;;;;;4935498;29;20422;-72
2021/05/15 08:40:31;;;;;;;1.97;1.27;;;;;;;;;;4935262;29;20994;-73
2021/05/15 08:42:57;;;;;;;0.80;0.70;;;;;;;;;;4935392;29;20419;-73
2021/05/15 08:45:24;;;;;;;1.57;1.10;;;;;;;;;;4935729;29;20939;-74
2021/05/15 08:47:51;;;;;;;1.20;1.10;;;;;;;;;;4935058;29;20421;-69
2021/05/15 08:53:20;;;;;;;3.30;1.17;;;;;;;;;;4934847;29;20483;-71
2021/05/15 08:55:46;;;;;;;2.53;0.63;;;;;;;;;;4935128;29;20436;-72
2021/05/15 08:58:12;;;;;;;0.77;0.77;;;;;;;;;;4934860;29;20436;-69
2021/05/15 09:00:41;;;;;;;1.70;0.83;;;;;;;;;;4934986;29;20796;-70
2021/05/15 09:03:09;;;;;;;0.50;0.50;;;;;;;;;;4935031;29;20428;-69
2021/05/15 09:08:38;;;;;;;3.60;0.70;;;;;;;;;;4935018;29;20827;-69
2021/05/15 09:11:05;;;;;;;0.83;0.80;;;;;;;;;;4935127;29;20424;-69
2021/05/15 09:13:31;;;;;;;1.60;0.80;;;;;;;;;;4935168;29;20484;-68
2021/05/15 09:16:06;;;;;;;2.77;1.10;;;;;;;;;;4935039;29;20412;-68
2021/05/15 09:18:33;;;;;;;1.57;1.00;;;;;;;;;;4935033;29;20938;-71
2021/05/15 09:21:01;;;;;;;1.73;1.63;;;;;;;;;;4935128;29;20919;-71
2021/05/15 09:23:28;;;;;;;1.53;0.93;;;;;;;;;;4934736;29;20987;-70
2021/05/15 09:25:55;;;;;;;1.90;0.90;;;;;;;;;;4934125;29;20404;-71
2021/05/15 09:28:38;;;;;;;2.13;1.00;;;;;;;;;;4934759;29;20844;-70
2021/05/15 09:31:15;;;;;;;0.63;0.63;;;;;;;;;;4935232;29;20431;-70
2021/05/15 09:33:43;;;;;;;1.53;0.80;;;;;;;;;;4932973;29;20475;-70
2021/05/15 09:36:20;;;;;;;0.73;0.60;;;;;;;;;;4932310;29;20440;-71
2021/05/15 09:38:46;;;;;;;2.40;0.70;;;;;;;;;;4933779;29;20829;-71
2021/05/15 09:41:12;;;;;;;0.97;0.80;;;;;;;;;;4933826;29;20903;-71
2021/05/15 09:43:38;;;;;;;4.60;1.07;;;;;;;;;;4935020;29;20531;-71
2021/05/15 09:46:04;;;;;;;1.23;0.87;;;;;;;;;;4932828;29;20435;-71
2021/05/15 09:48:37;;;;;;;0.70;0.70;;;;;;;;;;4933844;29;20421;-71
2021/05/15 09:51:13;;;;;;;2.07;0.97;;;;;;;;;;4933673;29;20926;-71
2021/05/15 09:53:39;;;;;;;2.43;1.17;;;;;;;;;;4932154;29;20815;-71
2021/05/15 09:56:05;;;;;;;1.07;0.80;;;;;;;;;;4933732;29;20493;-71
2021/05/15 09:58:32;;;;;;;0.83;0.80;;;;;;;;;;4933421;29;20428;-71
2021/05/15 10:00:58;;;;;;;1.53;1.07;;;;;;;;;;4933491;29;20421;-70
2021/05/15 10:03:26;;;;;;;1.00;0.73;;;;;;;;;;4933486;29;20427;-72
2021/05/15 10:08:56;;;;;;;1.83;1.23;;;;;;;;;;4933133;29;20492;-71
2021/05/15 10:11:24;;;;;;;1.50;0.87;;;;;;;;;;4933132;29;20935;-71
2021/05/15 10:13:50;;;;;;;2.50;0.80;;;;;;;;;;4932652;29;20479;-71
2021/05/15 10:16:17;;;;;;;0.97;0.87;;;;;;;;;;4932931;29;20421;-71
2021/05/15 10:18:43;;;;;;;0.80;0.60;;;;;;;;;;4933286;29;20464;-71
2021/05/15 10:21:09;;;;;;;1.00;0.90;;;;;;;;;;4933066;29;20429;-70
2021/05/15 10:23:35;;;;;;;1.00;0.87;;;;;;;;;;4933139;29;20425;-72
2021/05/15 10:26:01;;;;;;;1.10;0.63;;;;;;;;;;4932705;29;20413;-72
2021/05/15 10:28:28;;;;;;;1.47;1.00;;;;;;;;;;4933043;29;20427;-72
2021/05/15 10:31:15;;;;;;;2.60;0.80;;;;;;;;;;4933182;29;20920;-71
2021/05/15 10:33:42;;;;;;;4.23;2.00;;;;;;;;;;4932777;29;20503;-71
2021/05/15 10:39:11;;;;;;;1.60;1.00;;;;;;;;;;4933114;29;20950;-72
2021/05/15 10:41:45;;;;;;;2.03;1.43;;;;;;;;;;4934190;29;20512;-72
2021/05/15 10:44:12;;;;;;;1.10;0.80;;;;;;;;;;4934504;29;20427;-70
2021/05/15 10:46:44;;;;;;;0.70;0.70;;;;;;;;;;4934534;29;20416;-71
2021/05/15 10:49:16;;;;;;;0.93;0.93;;;;;;;;;;4934155;29;20439;-72
2021/05/15 10:51:42;;;;;;;1.10;0.80;;;;;;;;;;4938022;29;20424;-72
2021/05/15 10:54:09;;;;;;;2.23;0.90;;;;;;;;;;4937450;29;20756;-71
2021/05/15 10:56:35;;;;;;;5.27;1.10;;;;;;;;;;4937885;29;20779;-72
2021/05/15 10:59:03;;;;;;;1.27;1.00;;;;;;;;;;4920396;29;20476;-71
2021/05/15 11:01:31;;;;;;;1.57;1.20;;;;;;;;;;4937548;29;20503;-71
2021/05/15 11:03:58;;;;;;;1.97;0.90;;;;;;;;;;4937181;29;20796;-71
2021/05/15 11:06:28;;;;;;;4.83;0.70;;;;;;;;;;4937393;29;20523;-71
2021/05/15 11:09:00;;;;;;;1.03;0.70;;;;;;;;;;4937261;29;20409;-71
2021/05/15 11:11:42;;;;;;;1.37;0.90;;;;;;;;;;4937322;29;20448;-71
2021/05/15 11:14:28;;;;;;;1.03;0.90;;;;;;;;;;4936984;29;20475;-71
2021/05/15 11:17:04;;;;;;;1.77;0.90;;;;;;;;;;4937057;29;20416;-72
2021/05/15 11:19:30;;;;;;;1.77;0.80;;;;;;;;;;4937402;29;20431;-73
2021/05/15 11:21:56;;;;;;;1.57;0.80;;;;;;;;;;4936414;29;20438;-72
2021/05/15 11:24:32;;;;;;;3.50;0.93;;;;;;;;;;4937172;29;20423;-71
2021/05/15 11:27:09;;;;;;;1.30;0.70;;;;;;;;;;4937189;29;20435;-72
2021/05/15 11:29:36;;;;;;;0.73;0.50;;;;;;;;;;4937415;29;20468;-71
2021/05/15 11:32:08;;;;;;;1.17;0.77;;;;;;;;;;4937418;29;20424;-73
2021/05/15 11:34:35;;;;;;;3.80;0.87;;;;;;;;;;4937072;29;20475;-73
2021/05/15 11:37:01;;;;;;;3.17;1.23;;;;;;;;;;4937150;29;21007;-75
2021/05/15 11:39:27;;;;;;;3.33;0.63;;;;;;;;;;4937157;29;20433;-73
2021/05/15 11:42:10;;;;;;;2.10;0.93;;;;;;;;;;4937297;29;20499;-72
2021/05/15 11:44:37;;;;;;;2.37;0.80;;;;;;;;;;4936705;29;20412;-72
2021/05/15 11:47:04;;;;;;;3.27;0.60;;;;;;;;;;4936145;29;20438;-73
2021/05/15 11:49:30;;;;;;;1.00;0.50;;;;;;;;;;4936006;29;20808;-73
2021/05/15 11:52:00;;;;;;;1.83;1.03;;;;;;;;;;4935866;29;20436;-73
2021/05/15 11:54:26;;;;;;;4.70;0.80;;;;;;;;;;4935546;29;20599;-72
2021/05/15 11:56:53;;;;;;;1.20;1.00;;;;;;;;;;4935879;29;20417;-73
2021/05/15 11:59:20;;;;;;;0.40;0.40;;;;;;;;;;4936790;29;20430;-72
2021/05/15 12:01:46;;;;;;;1.17;0.60;;;;;;;;;;4936572;29;20926;-72
2021/05/15 12:04:46;;;;;;;0.80;0.70;;;;;;;;;;4935952;29;20421;-71
2021/05/15 12:10:16;;;;;;;1.57;0.60;;;;;;;;;;4935225;29;21167;-72
2021/05/15 12:12:53;;;;;;;1.13;0.70;;;;;;;;;;4935420;29;20797;-72
2021/05/15 12:15:19;;;;;;;4.73;0.87;;;;;;;;;;4935378;29;20460;-72
2021/05/15 12:17:45;;;;;;;3.07;1.00;;;;;;;;;;4935809;29;20412;-72
2021/05/15 12:20:11;;;;;;;0.80;0.80;;;;;;;;;;4934325;29;20448;-72
2021/05/15 12:22:37;;;;;;;1.70;1.17;;;;;;;;;;4935373;29;20835;-72
2021/05/15 12:25:10;;;;;;;0.90;0.80;;;;;;;;;;4934706;29;20464;-73
2021/05/15 12:27:36;;;;;;;1.00;0.73;;;;;;;;;;4935465;29;20454;-73
2021/05/15 12:30:06;;;;;;;0.70;0.60;;;;;;;;;;4935709;29;20500;-72
2021/05/15 12:32:35;;;;;;;0.77;0.60;;;;;;;;;;4935760;29;20471;-73
2021/05/15 12:35:01;;;;;;;3.30;0.60;;;;;;;;;;4936178;29;20534;-71
2021/05/15 12:37:34;;;;;;;4.27;1.33;;;;;;;;;;4935690;29;20518;-72
2021/05/15 12:40:04;;;;;;;1.40;0.90;;;;;;;;;;4934887;29;20456;-72
2021/05/15 12:42:31;;;;;;;1.43;0.77;;;;;;;;;;4935692;29;20812;-72
2021/05/15 12:45:06;;;;;;;2.10;0.97;;;;;;;;;;4934592;29;20913;-72
2021/05/15 12:47:36;;;;;;;0.73;0.73;;;;;;;;;;4933342;29;20431;-72
2021/05/15 12:50:02;;;;;;;4.73;0.70;;;;;;;;;;4933774;29;20417;-72
2021/05/15 12:52:35;;;;;;;1.20;1.10;;;;;;;;;;4934213;29;20424;-72
2021/05/15 12:55:07;;;;;;;0.70;0.60;;;;;;;;;;4933553;29;21313;-73
2021/05/15 12:57:33;;;;;;;0.73;0.67;;;;;;;;;;4933578;29;20769;-71
2021/05/15 12:59:59;;;;;;;2.20;0.60;;;;;;;;;;4934124;29;20487;-72
2021/05/15 13:02:25;;;;;;;0.87;0.63;;;;;;;;;;4933919;29;20425;-73
2021/05/15 13:04:56;;;;;;;2.60;0.90;;;;;;;;;;4933710;29;20479;-72
2021/05/15 13:10:25;;;;;;;2.20;0.80;;;;;;;;;;4933293;29;20408;-72
2021/05/15 13:12:51;;;;;;;2.50;0.90;;;;;;;;;;4933117;29;20955;-72
2021/05/15 13:15:17;;;;;;;0.83;0.50;;;;;;;;;;4933685;29;20491;-72
2021/05/15 13:17:43;;;;;;;1.67;0.67;;;;;;;;;;4933674;29;20413;-72
2021/05/15 13:20:09;;;;;;;0.70;0.67;;;;;;;;;;4933605;29;20507;-73
2021/05/15 13:22:35;;;;;;;2.50;0.70;;;;;;;;;;4933631;29;20412;-72
2021/05/15 13:25:01;;;;;;;1.30;0.70;;;;;;;;;;4932695;29;20420;-72
2021/05/15 13:27:27;;;;;;;2.93;0.83;;;;;;;;;;4933638;29;20460;-72
2021/05/15 13:29:53;;;;;;;1.77;0.83;;;;;;;;;;4933324;29;20424;-72
2021/05/15 13:32:19;;;;;;;0.97;0.87;;;;;;;;;;4933307;29;20423;-72
2021/05/15 13:34:45;;;;;;;1.40;1.10;;;;;;;;;;4933433;29;20468;-72
2021/05/15 13:40:14;;;;;;;0.90;0.80;;;;;;;;;;4933286;29;20487;-72
2021/05/15 13:42:40;;;;;;;5.40;1.03;;;;;;;;;;4933298;29;20516;-72
2021/05/15 13:45:07;;;;;;;2.17;1.67;;;;;;;;;;4933364;29;20545;-72
2021/05/15 13:47:33;;;;;;;2.37;1.70;;;;;;;;;;4933388;29;20429;-73
2021/05/15 13:49:59;;;;;;;1.33;0.80;;;;;;;;;;4933085;29;20882;-72
2021/05/15 13:55:29;;;;;;;2.40;1.10;;;;;;;;;;4932458;29;20526;-73
2021/05/15 13:57:55;;;;;;;1.03;0.90;;;;;;;;;;4932580;29;20476;-72
2021/05/15 14:00:21;;;;;;;3.97;1.10;;;;;;;;;;4933208;29;20412;-73
2021/05/15 14:02:47;;;;;;;0.93;0.80;;;;;;;;;;4933126;29;20415;-72
2021/05/15 14:05:16;;;;;;;1.23;0.83;;;;;;;;;;4931425;29;20515;-72
2021/05/15 14:10:48;;;;;;;2.73;0.67;;;;;;;;;;4932311;29;20934;-72
2021/05/15 14:13:14;;;;;;;1.03;0.70;;;;;;;;;;4932267;29;20484;-72
2021/05/15 14:15:40;;;;;;;1.70;0.97;;;;;;;;;;4932541;29;20746;-73
2021/05/15 14:18:07;;;;;;;2.33;1.03;;;;;;;;;;4932805;29;20419;-73
2021/05/15 14:20:34;;;;;;;1.00;0.80;;;;;;;;;;4931390;29;20492;-72
2021/05/15 14:26:03;;;;;;;1.70;1.13;;;;;;;;;;4935627;29;20963;-73
2021/05/15 14:28:29;;;;;;;1.00;0.87;;;;;;;;;;4936200;29;20425;-73
2021/05/15 14:30:55;;;;;;;2.00;0.80;;;;;;;;;;4936218;29;20432;-72
2021/05/15 14:33:21;;;;;;;1.97;0.90;;;;;;;;;;4936134;29;20487;-69
2021/05/15 14:35:47;;;;;;;3.00;0.93;;;;;;;;;;4935540;29;20442;-72
2021/05/15 14:41:16;;;;;;;1.67;0.73;;;;;;;;;;4937468;29;20467;-72
2021/05/15 14:43:42;;;;;;;1.27;0.80;;;;;;;;;;4937818;29;20452;-73
2021/05/15 14:46:09;;;;;;;1.17;0.70;;;;;;;;;;4937422;29;20498;-73
2021/05/15 14:48:35;;;;;;;3.10;1.00;;;;;;;;;;4937348;29;20412;-71
2021/05/15 14:56:51;;;;;;;3.70;0.90;;;;;;;;;;4937577;29;20504;-72
2021/05/15 14:59:17;;;;;;;1.77;0.87;;;;;;;;;;4936395;29;20898;-71
2021/05/15 15:01:43;;;;;;;1.80;1.13;;;;;;;;;;4937167;29;20452;-77
2021/05/15 15:04:09;;;;;;;2.50;1.00;;;;;;;;;;4937179;29;20431;-76
2021/05/15 15:06:35;;;;;;;1.30;0.83;;;;;;;;;;4936449;29;20420;-77
2021/05/15 15:09:03;;;;;;;3.77;3.47;;;;;;;;;;4936466;29;20458;-77
2021/05/15 15:11:29;;;;;;;2.03;1.27;;;;;;;;;;4935898;29;20420;-76
2021/05/15 15:13:55;;;;;;;1.73;1.20;;;;;;;;;;4936382;29;20608;-76
2021/05/15 15:16:21;;;;;;;2.10;1.40;;;;;;;;;;4936879;29;20895;-81
2021/05/15 15:18:47;;;;;;;1.30;1.20;;;;;;;;;;4936618;29;20447;-78
2021/05/15 15:21:13;;;;;;;1.77;0.70;;;;;;;;;;4936319;29;20499;-77
2021/05/15 15:23:39;;;;;;;1.40;1.20;;;;;;;;;;4937066;29;20428;-79
2021/05/15 15:26:05;;;;;;;3.47;1.03;;;;;;;;;;4936996;29;20420;-77
2021/05/15 15:28:31;;;;;;;1.13;0.93;;;;;;;;;;4936706;29;20424;-77
2021/05/15 15:30:57;;;;;;;2.10;0.80;;;;;;;;;;4937445;29;20412;-77
2021/05/15 15:33:23;;;;;;;2.40;1.03;;;;;;;;;;4936326;29;20499;-76
2021/05/15 15:35:49;;;;;;;1.70;1.30;;;;;;;;;;4935857;29;20420;-77
2021/05/15 15:41:19;;;;;;;2.67;1.30;;;;;;;;;;4935725;29;20456;-77
2021/05/15 15:43:45;;;;;;;2.23;1.30;;;;;;;;;;4936401;29;20421;-75
2021/05/15 15:46:13;;;;;;;2.43;2.03;;;;;;;;;;4936184;29;20424;-77
2021/05/15 15:48:39;;;;;;;2.40;1.30;;;;;;;;;;4936064;29;20454;-76
2021/05/15 15:51:09;;;;;;;1.80;1.20;;;;;;;;;;4935654;29;20730;-76
2021/05/15 15:56:38;;;;;;;2.17;1.93;;;;;;;;;;4935975;29;20480;-77
2021/05/15 15:59:04;;;;;;;3.30;2.03;;;;;;;;;;4935950;29;20845;-76
2021/05/15 16:01:30;;;;;;;2.57;1.60;;;;;;;;;;4935947;29;20463;-76
2021/05/15 16:03:56;;;;;;;2.17;1.40;;;;;;;;;;4935611;29;20428;-76
2021/05/15 16:06:22;;;;;;;1.70;1.20;;;;;;;;;;4935939;29;20429;-82
2021/05/15 16:11:52;;;;;;;5.13;1.00;;;;;;;;;;4933362;29;20958;-77
2021/05/15 16:14:18;;;;;;;1.93;1.00;;;;;;;;;;4934143;29;20487;-77
2021/05/15 16:16:44;;;;;;;0.70;0.70;;;;;;;;;;4935524;29;20503;-77
2021/05/15 16:19:10;;;;;;;1.33;0.90;;;;;;;;;;4935629;29;20519;-77
2021/05/15 16:21:36;;;;;;;0.73;0.73;;;;;;;;;;4935037;29;20784;-79
2021/05/15 16:24:02;;;;;;;1.70;0.83;;;;;;;;;;4935166;29;20499;-77
2021/05/15 16:26:28;;;;;;;0.77;0.77;;;;;;;;;;4935951;29;20430;-80
2021/05/15 16:28:54;;;;;;;1.27;0.93;;;;;;;;;;4934700;29;20436;-75
2021/05/15 16:31:20;;;;;;;2.37;0.97;;;;;;;;;;4942450;29;20471;-76
2021/05/15 16:33:47;;;;;;;1.30;0.70;;;;;;;;;;4931638;29;20571;-76
2021/05/15 16:36:13;;;;;;;1.83;1.30;;;;;;;;;;4935219;29;20424;-76
2021/05/15 16:41:43;;;;;;;2.40;0.90;;;;;;;;;;4935111;29;20527;-77
2021/05/15 16:44:10;;;;;;;1.07;0.90;;;;;;;;;;4934860;29;20847;-78
2021/05/15 16:46:36;;;;;;;1.23;0.87;;;;;;;;;;4932001;29;20430;-77
2021/05/15 16:49:02;;;;;;;1.10;1.10;;;;;;;;;;4932895;29;20447;-76
2021/05/15 16:51:28;;;;;;;0.97;0.87;;;;;;;;;;4934671;29;20443;-74
2021/05/15 16:57:01;;;;;;;1.87;1.20;;;;;;;;;;4934464;29;20475;-74
2021/05/15 16:59:27;;;;;;;1.20;0.80;;;;;;;;;;4934626;29;20448;-74
2021/05/15 17:01:53;;;;;;;6.83;1.10;;;;;;;;;;4934654;29;20533;-76
2021/05/15 17:04:19;;;;;;;2.40;0.97;;;;;;;;;;4934772;29;20934;-75